sensor_id;sensor_type;location;lat;lon;timestamp;P1;durP1;ratioP1;P2;durP2;ratioP2
68940;SDS011;55982;51.476;7.552;2023-05-08T00:00:17;67.75;;;37.92;;
68940;SDS011;55982;51.476;7.552;2023-05-08T00:02:43;62.47;;;36.85;;
68940;SDS011;55982;51.476;7.552;2023-05-08T00:05:08;61.35;;;36.20;;
68940;SDS011;55982;51.476;7.552;2023-05-08T00:07:37;59.97;;;36.85;;
68940;SDS011;55982;51.476;7.552;2023-05-08T00:10:03;61.58;;;36.03;;
68940;SDS011;55982;51.476;7.552;2023-05-08T00:12:30;60.10;;;38.10;;
68940;SDS011;55982;51.476;7.552;2023-05-08T00:14:55;58.80;;;34.72;;
68940;SDS011;55982;51.476;7.552;2023-05-08T00:17:21;59.17;;;35.65;;
68940;SDS011;55982;51.476;7.552;2023-05-08T00:19:47;57.08;;;34.85;;
68940;SDS011;55982;51.476;7.552;2023-05-08T00:22:12;61.25;;;35.33;;
68940;SDS011;55982;51.476;7.552;2023-05-08T00:24:38;60.72;;;37.05;;
68940;SDS011;55982;51.476;7.552;2023-05-08T00:27:04;62.08;;;36.50;;
68940;SDS011;55982;51.476;7.552;2023-05-08T00:29:29;63.05;;;36.47;;
68940;SDS011;55982;51.476;7.552;2023-05-08T00:31:55;64.53;;;39.33;;
68940;SDS011;55982;51.476;7.552;2023-05-08T00:34:20;63.88;;;36.38;;
68940;SDS011;55982;51.476;7.552;2023-05-08T00:36:46;63.30;;;36.80;;
68940;SDS011;55982;51.476;7.552;2023-05-08T00:39:11;62.13;;;36.55;;
68940;SDS011;55982;51.476;7.552;2023-05-08T00:41:37;66.60;;;37.90;;
68940;SDS011;55982;51.476;7.552;2023-05-08T00:44:02;67.25;;;36.92;;
68940;SDS011;55982;51.476;7.552;2023-05-08T00:46:28;67.15;;;38.78;;
68940;SDS011;55982;51.476;7.552;2023-05-08T00:48:54;65.65;;;37.15;;
68940;SDS011;55982;51.476;7.552;2023-05-08T00:51:20;66.20;;;37.65;;
68940;SDS011;55982;51.476;7.552;2023-05-08T00:53:46;68.13;;;37.88;;
68940;SDS011;55982;51.476;7.552;2023-05-08T00:56:12;66.30;;;37.30;;
68940;SDS011;55982;51.476;7.552;2023-05-08T00:58:39;69.80;;;40.10;;
68940;SDS011;55982;51.476;7.552;2023-05-08T01:01:06;68.38;;;39.20;;
68940;SDS011;55982;51.476;7.552;2023-05-08T01:03:32;70.53;;;39.60;;
68940;SDS011;55982;51.476;7.552;2023-05-08T01:06:02;69.55;;;38.80;;
68940;SDS011;55982;51.476;7.552;2023-05-08T01:08:29;71.57;;;39.78;;
68940;SDS011;55982;51.476;7.552;2023-05-08T01:17:16;70.80;;;38.33;;
68940;SDS011;55982;51.476;7.552;2023-05-08T01:19:58;70.97;;;40.20;;
68940;SDS011;55982;51.476;7.552;2023-05-08T01:34:02;76.18;;;41.00;;
68940;SDS011;55982;51.476;7.552;2023-05-08T01:39:20;68.55;;;38.15;;
68940;SDS011;55982;51.476;7.552;2023-05-08T01:44:35;67.30;;;38.47;;
68940;SDS011;55982;51.476;7.552;2023-05-08T01:47:06;62.88;;;37.83;;
68940;SDS011;55982;51.476;7.552;2023-05-08T01:49:36;64.57;;;36.00;;
68940;SDS011;55982;51.476;7.552;2023-05-08T01:52:06;67.72;;;37.53;;
68940;SDS011;55982;51.476;7.552;2023-05-08T01:54:41;66.63;;;37.78;;
68940;SDS011;55982;51.476;7.552;2023-05-08T01:57:12;65.85;;;36.17;;
68940;SDS011;55982;51.476;7.552;2023-05-08T01:59:40;64.90;;;36.10;;
68940;SDS011;55982;51.476;7.552;2023-05-08T02:02:06;59.05;;;35.40;;
68940;SDS011;55982;51.476;7.552;2023-05-08T02:04:34;61.65;;;34.50;;
68940;SDS011;55982;51.476;7.552;2023-05-08T02:07:00;59.20;;;33.63;;
68940;SDS011;55982;51.476;7.552;2023-05-08T02:09:27;62.22;;;33.78;;
68940;SDS011;55982;51.476;7.552;2023-05-08T02:11:54;56.75;;;33.03;;
68940;SDS011;55982;51.476;7.552;2023-05-08T02:14:21;59.28;;;32.20;;
68940;SDS011;55982;51.476;7.552;2023-05-08T02:16:49;60.78;;;33.80;;
68940;SDS011;55982;51.476;7.552;2023-05-08T02:19:16;59.22;;;32.90;;
68940;SDS011;55982;51.476;7.552;2023-05-08T02:21:43;55.72;;;31.75;;
68940;SDS011;55982;51.476;7.552;2023-05-08T02:24:10;50.63;;;31.13;;
68940;SDS011;55982;51.476;7.552;2023-05-08T02:26:38;56.67;;;33.22;;
68940;SDS011;55982;51.476;7.552;2023-05-08T02:29:05;50.47;;;31.73;;
68940;SDS011;55982;51.476;7.552;2023-05-08T02:31:31;63.35;;;33.58;;
68940;SDS011;55982;51.476;7.552;2023-05-08T02:33:58;56.83;;;33.50;;
68940;SDS011;55982;51.476;7.552;2023-05-08T02:36:26;55.63;;;33.38;;
68940;SDS011;55982;51.476;7.552;2023-05-08T02:38:55;53.95;;;33.50;;
68940;SDS011;55982;51.476;7.552;2023-05-08T02:41:23;54.05;;;32.00;;
68940;SDS011;55982;51.476;7.552;2023-05-08T02:43:52;55.33;;;32.65;;
68940;SDS011;55982;51.476;7.552;2023-05-08T02:46:19;62.75;;;34.28;;
68940;SDS011;55982;51.476;7.552;2023-05-08T02:51:17;59.10;;;34.42;;
68940;SDS011;55982;51.476;7.552;2023-05-08T02:54:02;59.63;;;32.67;;
68940;SDS011;55982;51.476;7.552;2023-05-08T02:56:36;62.05;;;35.58;;
68940;SDS011;55982;51.476;7.552;2023-05-08T02:59:15;62.83;;;35.55;;
68940;SDS011;55982;51.476;7.552;2023-05-08T03:01:58;63.28;;;37.17;;
68940;SDS011;55982;51.476;7.552;2023-05-08T03:04:30;71.30;;;37.03;;
68940;SDS011;55982;51.476;7.552;2023-05-08T03:07:00;68.43;;;36.25;;
68940;SDS011;55982;51.476;7.552;2023-05-08T03:09:31;62.38;;;36.33;;
68940;SDS011;55982;51.476;7.552;2023-05-08T03:12:19;61.13;;;35.72;;
68940;SDS011;55982;51.476;7.552;2023-05-08T03:15:07;63.92;;;36.30;;
68940;SDS011;55982;51.476;7.552;2023-05-08T03:17:43;64.20;;;36.08;;
68940;SDS011;55982;51.476;7.552;2023-05-08T03:20:13;65.68;;;35.72;;
68940;SDS011;55982;51.476;7.552;2023-05-08T03:22:41;62.65;;;34.75;;
68940;SDS011;55982;51.476;7.552;2023-05-08T03:25:08;62.03;;;35.08;;
68940;SDS011;55982;51.476;7.552;2023-05-08T03:27:36;62.22;;;35.03;;
68940;SDS011;55982;51.476;7.552;2023-05-08T03:30:03;60.70;;;35.13;;
68940;SDS011;55982;51.476;7.552;2023-05-08T03:32:30;60.90;;;34.28;;
68940;SDS011;55982;51.476;7.552;2023-05-08T03:34:57;60.17;;;33.85;;
68940;SDS011;55982;51.476;7.552;2023-05-08T03:37:25;56.85;;;33.05;;
68940;SDS011;55982;51.476;7.552;2023-05-08T03:39:52;55.15;;;32.17;;
68940;SDS011;55982;51.476;7.552;2023-05-08T03:42:18;58.75;;;32.60;;
68940;SDS011;55982;51.476;7.552;2023-05-08T03:44:50;56.45;;;32.88;;
68940;SDS011;55982;51.476;7.552;2023-05-08T03:47:17;53.72;;;32.40;;
68940;SDS011;55982;51.476;7.552;2023-05-08T03:49:46;58.95;;;32.92;;
68940;SDS011;55982;51.476;7.552;2023-05-08T03:52:12;60.47;;;33.33;;
68940;SDS011;55982;51.476;7.552;2023-05-08T03:54:38;66.53;;;34.60;;
68940;SDS011;55982;51.476;7.552;2023-05-08T03:57:04;70.10;;;35.90;;
68940;SDS011;55982;51.476;7.552;2023-05-08T04:02:20;78.10;;;36.65;;
68940;SDS011;55982;51.476;7.552;2023-05-08T04:04:59;65.45;;;36.13;;
68940;SDS011;55982;51.476;7.552;2023-05-08T04:07:42;66.68;;;36.05;;
68940;SDS011;55982;51.476;7.552;2023-05-08T04:10:15;68.68;;;36.60;;
68940;SDS011;55982;51.476;7.552;2023-05-08T04:13:17;71.10;;;36.55;;
68940;SDS011;55982;51.476;7.552;2023-05-08T04:15:38;68.68;;;36.92;;
68940;SDS011;55982;51.476;7.552;2023-05-08T04:18:13;72.90;;;39.45;;
68940;SDS011;55982;51.476;7.552;2023-05-08T04:20:43;68.10;;;37.60;;
68940;SDS011;55982;51.476;7.552;2023-05-08T04:23:13;66.70;;;36.28;;
68940;SDS011;55982;51.476;7.552;2023-05-08T04:25:41;64.20;;;36.28;;
68940;SDS011;55982;51.476;7.552;2023-05-08T04:28:08;60.72;;;33.70;;
68940;SDS011;55982;51.476;7.552;2023-05-08T04:30:35;56.42;;;32.90;;
68940;SDS011;55982;51.476;7.552;2023-05-08T04:33:01;49.50;;;30.13;;
68940;SDS011;55982;51.476;7.552;2023-05-08T04:35:28;49.72;;;28.95;;
68940;SDS011;55982;51.476;7.552;2023-05-08T04:37:54;54.58;;;30.10;;
68940;SDS011;55982;51.476;7.552;2023-05-08T04:40:19;48.58;;;29.63;;
68940;SDS011;55982;51.476;7.552;2023-05-08T04:42:46;44.88;;;26.35;;
68940;SDS011;55982;51.476;7.552;2023-05-08T04:45:11;49.03;;;27.65;;
68940;SDS011;55982;51.476;7.552;2023-05-08T04:47:37;45.30;;;27.25;;
68940;SDS011;55982;51.476;7.552;2023-05-08T04:50:03;40.08;;;25.13;;
68940;SDS011;55982;51.476;7.552;2023-05-08T04:52:29;43.90;;;25.83;;
68940;SDS011;55982;51.476;7.552;2023-05-08T04:54:54;38.90;;;25.35;;
68940;SDS011;55982;51.476;7.552;2023-05-08T04:57:20;38.92;;;24.83;;
68940;SDS011;55982;51.476;7.552;2023-05-08T04:59:45;44.03;;;26.63;;
68940;SDS011;55982;51.476;7.552;2023-05-08T05:02:11;40.33;;;24.75;;
68940;SDS011;55982;51.476;7.552;2023-05-08T05:04:36;39.58;;;26.05;;
68940;SDS011;55982;51.476;7.552;2023-05-08T05:07:02;38.17;;;24.42;;
68940;SDS011;55982;51.476;7.552;2023-05-08T05:09:28;39.45;;;24.70;;
68940;SDS011;55982;51.476;7.552;2023-05-08T05:11:53;38.97;;;24.23;;
68940;SDS011;55982;51.476;7.552;2023-05-08T05:14:19;37.50;;;23.48;;
68940;SDS011;55982;51.476;7.552;2023-05-08T05:16:44;39.15;;;23.60;;
68940;SDS011;55982;51.476;7.552;2023-05-08T05:19:11;43.50;;;24.13;;
68940;SDS011;55982;51.476;7.552;2023-05-08T05:21:36;42.60;;;24.30;;
68940;SDS011;55982;51.476;7.552;2023-05-08T05:24:03;38.30;;;24.60;;
68940;SDS011;55982;51.476;7.552;2023-05-08T05:26:29;35.50;;;22.58;;
68940;SDS011;55982;51.476;7.552;2023-05-08T05:28:55;33.38;;;21.95;;
68940;SDS011;55982;51.476;7.552;2023-05-08T05:31:21;35.75;;;23.13;;
68940;SDS011;55982;51.476;7.552;2023-05-08T05:33:46;33.08;;;23.38;;
68940;SDS011;55982;51.476;7.552;2023-05-08T05:36:11;32.80;;;21.98;;
68940;SDS011;55982;51.476;7.552;2023-05-08T05:38:37;38.53;;;25.55;;
68940;SDS011;55982;51.476;7.552;2023-05-08T05:41:04;41.50;;;26.35;;
68940;SDS011;55982;51.476;7.552;2023-05-08T05:43:30;40.72;;;27.17;;
68940;SDS011;55982;51.476;7.552;2023-05-08T05:46:02;40.97;;;28.80;;
68940;SDS011;55982;51.476;7.552;2023-05-08T05:48:30;37.92;;;27.67;;
68940;SDS011;55982;51.476;7.552;2023-05-08T05:50:56;37.00;;;27.63;;
68940;SDS011;55982;51.476;7.552;2023-05-08T05:53:22;38.97;;;26.80;;
68940;SDS011;55982;51.476;7.552;2023-05-08T05:55:47;38.88;;;27.20;;
68940;SDS011;55982;51.476;7.552;2023-05-08T05:58:13;36.00;;;24.45;;
68940;SDS011;55982;51.476;7.552;2023-05-08T06:00:41;30.67;;;22.13;;
68940;SDS011;55982;51.476;7.552;2023-05-08T06:03:07;37.47;;;22.48;;
68940;SDS011;55982;51.476;7.552;2023-05-08T06:05:33;24.50;;;18.63;;
68940;SDS011;55982;51.476;7.552;2023-05-08T06:07:58;25.85;;;20.45;;
68940;SDS011;55982;51.476;7.552;2023-05-08T06:10:24;29.77;;;21.73;;
68940;SDS011;55982;51.476;7.552;2023-05-08T06:12:49;27.42;;;19.98;;
68940;SDS011;55982;51.476;7.552;2023-05-08T06:15:15;23.98;;;17.77;;
68940;SDS011;55982;51.476;7.552;2023-05-08T06:17:41;18.45;;;14.85;;
68940;SDS011;55982;51.476;7.552;2023-05-08T06:20:06;21.15;;;15.38;;
68940;SDS011;55982;51.476;7.552;2023-05-08T06:22:33;22.48;;;15.70;;
68940;SDS011;55982;51.476;7.552;2023-05-08T06:24:58;19.42;;;15.07;;
68940;SDS011;55982;51.476;7.552;2023-05-08T06:27:23;20.65;;;15.10;;
68940;SDS011;55982;51.476;7.552;2023-05-08T06:29:50;19.23;;;15.02;;
68940;SDS011;55982;51.476;7.552;2023-05-08T06:32:17;21.92;;;16.05;;
68940;SDS011;55982;51.476;7.552;2023-05-08T06:34:46;19.88;;;14.70;;
68940;SDS011;55982;51.476;7.552;2023-05-08T06:37:12;17.33;;;11.20;;
68940;SDS011;55982;51.476;7.552;2023-05-08T06:39:38;11.10;;;9.38;;
68940;SDS011;55982;51.476;7.552;2023-05-08T06:42:03;12.00;;;9.50;;
68940;SDS011;55982;51.476;7.552;2023-05-08T06:44:30;12.35;;;9.23;;
68940;SDS011;55982;51.476;7.552;2023-05-08T06:46:56;13.07;;;8.80;;
68940;SDS011;55982;51.476;7.552;2023-05-08T06:49:22;12.48;;;9.68;;
68940;SDS011;55982;51.476;7.552;2023-05-08T06:51:47;14.27;;;9.30;;
68940;SDS011;55982;51.476;7.552;2023-05-08T06:54:13;15.55;;;9.30;;
68940;SDS011;55982;51.476;7.552;2023-05-08T06:56:39;13.65;;;9.70;;
68940;SDS011;55982;51.476;7.552;2023-05-08T06:59:04;13.15;;;9.73;;
68940;SDS011;55982;51.476;7.552;2023-05-08T07:01:30;13.20;;;10.15;;
68940;SDS011;55982;51.476;7.552;2023-05-08T07:03:55;11.35;;;9.70;;
68940;SDS011;55982;51.476;7.552;2023-05-08T07:06:20;15.38;;;10.18;;
68940;SDS011;55982;51.476;7.552;2023-05-08T07:08:46;11.50;;;10.15;;
68940;SDS011;55982;51.476;7.552;2023-05-08T07:11:11;15.05;;;10.63;;
68940;SDS011;55982;51.476;7.552;2023-05-08T07:13:37;14.55;;;11.38;;
68940;SDS011;55982;51.476;7.552;2023-05-08T07:16:07;14.02;;;10.48;;
68940;SDS011;55982;51.476;7.552;2023-05-08T07:18:36;13.30;;;10.43;;
68940;SDS011;55982;51.476;7.552;2023-05-08T07:21:01;14.65;;;10.77;;
68940;SDS011;55982;51.476;7.552;2023-05-08T07:23:27;14.07;;;10.43;;
68940;SDS011;55982;51.476;7.552;2023-05-08T07:25:53;14.88;;;9.70;;
68940;SDS011;55982;51.476;7.552;2023-05-08T07:28:18;14.02;;;10.75;;
68940;SDS011;55982;51.476;7.552;2023-05-08T07:30:44;13.98;;;10.45;;
68940;SDS011;55982;51.476;7.552;2023-05-08T07:33:10;14.25;;;10.27;;
68940;SDS011;55982;51.476;7.552;2023-05-08T07:35:37;13.18;;;9.98;;
68940;SDS011;55982;51.476;7.552;2023-05-08T07:38:06;12.70;;;9.10;;
68940;SDS011;55982;51.476;7.552;2023-05-08T07:40:31;10.70;;;8.27;;
68940;SDS011;55982;51.476;7.552;2023-05-08T07:42:56;10.50;;;7.88;;
68940;SDS011;55982;51.476;7.552;2023-05-08T07:45:22;10.10;;;8.15;;
68940;SDS011;55982;51.476;7.552;2023-05-08T07:47:48;9.73;;;8.32;;
68940;SDS011;55982;51.476;7.552;2023-05-08T07:50:15;12.15;;;9.13;;
68940;SDS011;55982;51.476;7.552;2023-05-08T07:52:40;12.80;;;9.20;;
68940;SDS011;55982;51.476;7.552;2023-05-08T07:55:06;13.20;;;9.02;;
68940;SDS011;55982;51.476;7.552;2023-05-08T07:57:38;11.60;;;8.50;;
68940;SDS011;55982;51.476;7.552;2023-05-08T08:00:05;10.35;;;8.57;;
68940;SDS011;55982;51.476;7.552;2023-05-08T08:02:32;11.02;;;8.00;;
68940;SDS011;55982;51.476;7.552;2023-05-08T08:04:57;10.20;;;7.43;;
68940;SDS011;55982;51.476;7.552;2023-05-08T08:07:23;10.45;;;7.50;;
68940;SDS011;55982;51.476;7.552;2023-05-08T08:09:48;8.98;;;7.05;;
68940;SDS011;55982;51.476;7.552;2023-05-08T08:12:14;9.05;;;6.75;;
68940;SDS011;55982;51.476;7.552;2023-05-08T08:14:39;7.45;;;6.57;;
68940;SDS011;55982;51.476;7.552;2023-05-08T08:17:05;6.75;;;6.05;;
68940;SDS011;55982;51.476;7.552;2023-05-08T08:19:30;6.15;;;5.55;;
68940;SDS011;55982;51.476;7.552;2023-05-08T08:21:56;8.48;;;5.60;;
68940;SDS011;55982;51.476;7.552;2023-05-08T08:24:21;7.03;;;6.03;;
68940;SDS011;55982;51.476;7.552;2023-05-08T08:26:47;7.00;;;6.13;;
68940;SDS011;55982;51.476;7.552;2023-05-08T08:29:13;6.65;;;5.95;;
68940;SDS011;55982;51.476;7.552;2023-05-08T08:31:38;7.20;;;6.20;;
68940;SDS011;55982;51.476;7.552;2023-05-08T08:34:04;7.85;;;6.20;;
68940;SDS011;55982;51.476;7.552;2023-05-08T08:36:30;12.10;;;6.50;;
68940;SDS011;55982;51.476;7.552;2023-05-08T08:38:56;10.40;;;7.40;;
68940;SDS011;55982;51.476;7.552;2023-05-08T08:41:22;14.38;;;7.32;;
68940;SDS011;55982;51.476;7.552;2023-05-08T08:43:47;14.90;;;8.00;;
68940;SDS011;55982;51.476;7.552;2023-05-08T08:46:13;8.23;;;6.22;;
68940;SDS011;55982;51.476;7.552;2023-05-08T08:48:43;12.18;;;6.75;;
68940;SDS011;55982;51.476;7.552;2023-05-08T08:51:11;8.43;;;6.18;;
68940;SDS011;55982;51.476;7.552;2023-05-08T08:54:20;7.95;;;6.30;;
68940;SDS011;55982;51.476;7.552;2023-05-08T08:56:52;9.05;;;7.03;;
68940;SDS011;55982;51.476;7.552;2023-05-08T08:59:19;9.15;;;6.97;;
68940;SDS011;55982;51.476;7.552;2023-05-08T09:01:52;8.77;;;6.82;;
68940;SDS011;55982;51.476;7.552;2023-05-08T09:04:22;10.80;;;7.30;;
68940;SDS011;55982;51.476;7.552;2023-05-08T09:06:51;8.73;;;6.57;;
68940;SDS011;55982;51.476;7.552;2023-05-08T09:09:17;8.30;;;6.28;;
68940;SDS011;55982;51.476;7.552;2023-05-08T09:11:43;9.77;;;6.75;;
68940;SDS011;55982;51.476;7.552;2023-05-08T09:14:10;8.75;;;6.43;;
68940;SDS011;55982;51.476;7.552;2023-05-08T09:16:36;6.85;;;5.95;;
68940;SDS011;55982;51.476;7.552;2023-05-08T09:19:02;9.88;;;6.05;;
68940;SDS011;55982;51.476;7.552;2023-05-08T09:21:27;7.70;;;5.65;;
68940;SDS011;55982;51.476;7.552;2023-05-08T09:23:57;7.65;;;5.57;;
68940;SDS011;55982;51.476;7.552;2023-05-08T09:26:31;7.55;;;5.93;;
68940;SDS011;55982;51.476;7.552;2023-05-08T09:29:07;7.13;;;6.32;;
68940;SDS011;55982;51.476;7.552;2023-05-08T09:31:34;7.45;;;5.80;;
68940;SDS011;55982;51.476;7.552;2023-05-08T09:34:00;7.18;;;5.63;;
68940;SDS011;55982;51.476;7.552;2023-05-08T09:36:26;7.72;;;6.05;;
68940;SDS011;55982;51.476;7.552;2023-05-08T09:38:56;8.82;;;6.63;;
68940;SDS011;55982;51.476;7.552;2023-05-08T09:41:21;6.57;;;5.88;;
68940;SDS011;55982;51.476;7.552;2023-05-08T09:44:06;8.52;;;6.32;;
68940;SDS011;55982;51.476;7.552;2023-05-08T09:46:32;5.40;;;4.93;;
68940;SDS011;55982;51.476;7.552;2023-05-08T09:48:59;7.47;;;4.95;;
68940;SDS011;55982;51.476;7.552;2023-05-08T09:51:26;7.55;;;4.78;;
68940;SDS011;55982;51.476;7.552;2023-05-08T09:53:54;6.15;;;4.65;;
68940;SDS011;55982;51.476;7.552;2023-05-08T09:59:26;6.38;;;4.50;;
68940;SDS011;55982;51.476;7.552;2023-05-08T10:01:53;8.63;;;4.72;;
68940;SDS011;55982;51.476;7.552;2023-05-08T10:04:35;6.38;;;4.97;;
68940;SDS011;55982;51.476;7.552;2023-05-08T10:07:02;9.20;;;4.93;;
68940;SDS011;55982;51.476;7.552;2023-05-08T10:09:28;6.07;;;4.97;;
68940;SDS011;55982;51.476;7.552;2023-05-08T10:11:54;7.75;;;6.07;;
68940;SDS011;55982;51.476;7.552;2023-05-08T10:14:22;8.63;;;5.63;;
68940;SDS011;55982;51.476;7.552;2023-05-08T10:16:48;8.70;;;6.63;;
68940;SDS011;55982;51.476;7.552;2023-05-08T10:19:19;7.40;;;5.63;;
68940;SDS011;55982;51.476;7.552;2023-05-08T10:21:47;7.47;;;5.65;;
68940;SDS011;55982;51.476;7.552;2023-05-08T10:24:26;9.38;;;6.05;;
68940;SDS011;55982;51.476;7.552;2023-05-08T10:29:46;13.30;;;6.82;;
68940;SDS011;55982;51.476;7.552;2023-05-08T10:32:18;8.63;;;6.68;;
68940;SDS011;55982;51.476;7.552;2023-05-08T10:34:45;11.32;;;7.30;;
68940;SDS011;55982;51.476;7.552;2023-05-08T10:37:17;10.23;;;7.35;;
68940;SDS011;55982;51.476;7.552;2023-05-08T10:39:43;9.32;;;7.50;;
68940;SDS011;55982;51.476;7.552;2023-05-08T10:42:09;10.63;;;7.70;;
68940;SDS011;55982;51.476;7.552;2023-05-08T10:44:37;9.60;;;7.35;;
68940;SDS011;55982;51.476;7.552;2023-05-08T10:50:07;8.02;;;7.15;;
68940;SDS011;55982;51.476;7.552;2023-05-08T10:53:03;7.68;;;6.82;;
68940;SDS011;55982;51.476;7.552;2023-05-08T10:55:41;7.22;;;6.03;;
68940;SDS011;55982;51.476;7.552;2023-05-08T11:03:19;7.07;;;5.40;;
68940;SDS011;55982;51.476;7.552;2023-05-08T11:05:49;5.90;;;5.30;;
68940;SDS011;55982;51.476;7.552;2023-05-08T11:08:18;7.00;;;4.82;;
68940;SDS011;55982;51.476;7.552;2023-05-08T11:13:17;6.30;;;4.90;;
68940;SDS011;55982;51.476;7.552;2023-05-08T11:15:51;5.85;;;4.28;;
68940;SDS011;55982;51.476;7.552;2023-05-08T11:18:16;4.95;;;4.07;;
68940;SDS011;55982;51.476;7.552;2023-05-08T11:20:55;4.30;;;3.90;;
68940;SDS011;55982;51.476;7.552;2023-05-08T11:23:29;5.70;;;4.32;;
68940;SDS011;55982;51.476;7.552;2023-05-08T11:28:32;3.60;;;3.13;;
68940;SDS011;55982;51.476;7.552;2023-05-08T11:31:02;3.30;;;3.10;;
68940;SDS011;55982;51.476;7.552;2023-05-08T11:33:29;3.35;;;3.05;;
68940;SDS011;55982;51.476;7.552;2023-05-08T11:36:14;5.75;;;3.72;;
68940;SDS011;55982;51.476;7.552;2023-05-08T11:38:41;4.50;;;3.65;;
68940;SDS011;55982;51.476;7.552;2023-05-08T11:46:05;4.32;;;3.40;;
68940;SDS011;55982;51.476;7.552;2023-05-08T11:48:34;4.20;;;3.28;;
68940;SDS011;55982;51.476;7.552;2023-05-08T11:51:00;5.05;;;3.25;;
68940;SDS011;55982;51.476;7.552;2023-05-08T11:53:27;5.03;;;3.80;;
68940;SDS011;55982;51.476;7.552;2023-05-08T11:55:55;4.07;;;3.40;;
68940;SDS011;55982;51.476;7.552;2023-05-08T11:58:21;3.72;;;3.22;;
68940;SDS011;55982;51.476;7.552;2023-05-08T12:00:47;5.68;;;3.95;;
68940;SDS011;55982;51.476;7.552;2023-05-08T12:03:14;5.50;;;3.45;;
68940;SDS011;55982;51.476;7.552;2023-05-08T12:05:46;4.30;;;3.90;;
68940;SDS011;55982;51.476;7.552;2023-05-08T12:08:13;4.22;;;3.83;;
68940;SDS011;55982;51.476;7.552;2023-05-08T12:10:47;7.38;;;4.45;;
68940;SDS011;55982;51.476;7.552;2023-05-08T12:13:19;6.03;;;4.50;;
68940;SDS011;55982;51.476;7.552;2023-05-08T12:15:49;6.07;;;4.55;;
68940;SDS011;55982;51.476;7.552;2023-05-08T12:18:20;5.90;;;4.50;;
68940;SDS011;55982;51.476;7.552;2023-05-08T12:20:52;6.43;;;4.60;;
68940;SDS011;55982;51.476;7.552;2023-05-08T12:23:21;8.10;;;4.75;;
68940;SDS011;55982;51.476;7.552;2023-05-08T12:25:46;6.78;;;4.70;;
68940;SDS011;55982;51.476;7.552;2023-05-08T12:28:15;7.13;;;4.63;;
68940;SDS011;55982;51.476;7.552;2023-05-08T12:30:43;9.98;;;5.28;;
68940;SDS011;55982;51.476;7.552;2023-05-08T12:33:08;5.15;;;3.97;;
68940;SDS011;55982;51.476;7.552;2023-05-08T12:35:35;5.60;;;4.63;;
68940;SDS011;55982;51.476;7.552;2023-05-08T12:38:01;8.68;;;4.47;;
68940;SDS011;55982;51.476;7.552;2023-05-08T12:40:31;5.45;;;4.18;;
68940;SDS011;55982;51.476;7.552;2023-05-08T12:43:06;4.80;;;4.32;;
68940;SDS011;55982;51.476;7.552;2023-05-08T12:45:32;4.32;;;3.90;;
68940;SDS011;55982;51.476;7.552;2023-05-08T12:48:07;7.13;;;4.40;;
68940;SDS011;55982;51.476;7.552;2023-05-08T12:50:35;9.55;;;4.18;;
68940;SDS011;55982;51.476;7.552;2023-05-08T12:53:03;5.80;;;4.07;;
68940;SDS011;55982;51.476;7.552;2023-05-08T12:55:33;4.72;;;3.97;;
68940;SDS011;55982;51.476;7.552;2023-05-08T12:58:06;5.13;;;4.50;;
68940;SDS011;55982;51.476;7.552;2023-05-08T13:00:40;4.90;;;4.40;;
68940;SDS011;55982;51.476;7.552;2023-05-08T13:03:07;7.60;;;4.68;;
68940;SDS011;55982;51.476;7.552;2023-05-08T13:05:34;5.53;;;4.28;;
68940;SDS011;55982;51.476;7.552;2023-05-08T13:08:01;6.38;;;4.68;;
68940;SDS011;55982;51.476;7.552;2023-05-08T13:10:55;5.65;;;4.95;;
68940;SDS011;55982;51.476;7.552;2023-05-08T13:13:21;5.50;;;4.47;;
68940;SDS011;55982;51.476;7.552;2023-05-08T13:15:50;6.53;;;4.45;;
68940;SDS011;55982;51.476;7.552;2023-05-08T13:18:17;6.03;;;4.85;;
68940;SDS011;55982;51.476;7.552;2023-05-08T13:20:43;6.22;;;4.70;;
68940;SDS011;55982;51.476;7.552;2023-05-08T13:23:10;5.25;;;4.30;;
68940;SDS011;55982;51.476;7.552;2023-05-08T13:25:36;5.25;;;4.75;;
68940;SDS011;55982;51.476;7.552;2023-05-08T13:28:02;6.38;;;5.63;;
68940;SDS011;55982;51.476;7.552;2023-05-08T13:30:29;6.28;;;5.60;;
68940;SDS011;55982;51.476;7.552;2023-05-08T13:32:54;8.30;;;5.82;;
68940;SDS011;55982;51.476;7.552;2023-05-08T13:35:20;8.60;;;6.18;;
68940;SDS011;55982;51.476;7.552;2023-05-08T13:37:46;7.13;;;5.65;;
68940;SDS011;55982;51.476;7.552;2023-05-08T13:40:12;8.05;;;5.88;;
68940;SDS011;55982;51.476;7.552;2023-05-08T13:42:40;8.25;;;5.90;;
68940;SDS011;55982;51.476;7.552;2023-05-08T13:45:06;6.28;;;5.68;;
68940;SDS011;55982;51.476;7.552;2023-05-08T13:47:32;7.30;;;5.93;;
68940;SDS011;55982;51.476;7.552;2023-05-08T13:49:57;7.68;;;5.97;;
68940;SDS011;55982;51.476;7.552;2023-05-08T13:52:23;7.53;;;5.88;;
68940;SDS011;55982;51.476;7.552;2023-05-08T13:54:49;6.93;;;6.22;;
68940;SDS011;55982;51.476;7.552;2023-05-08T13:57:14;7.47;;;6.38;;
68940;SDS011;55982;51.476;7.552;2023-05-08T13:59:40;7.97;;;6.65;;
68940;SDS011;55982;51.476;7.552;2023-05-08T14:02:05;7.38;;;6.28;;
68940;SDS011;55982;51.476;7.552;2023-05-08T14:04:31;8.40;;;6.82;;
68940;SDS011;55982;51.476;7.552;2023-05-08T14:06:56;8.50;;;7.05;;
68940;SDS011;55982;51.476;7.552;2023-05-08T14:09:21;10.10;;;7.43;;
68940;SDS011;55982;51.476;7.552;2023-05-08T14:11:47;7.25;;;6.43;;
68940;SDS011;55982;51.476;7.552;2023-05-08T14:14:12;7.07;;;6.38;;
68940;SDS011;55982;51.476;7.552;2023-05-08T14:16:38;8.45;;;6.15;;
68940;SDS011;55982;51.476;7.552;2023-05-08T14:19:03;8.32;;;7.20;;
68940;SDS011;55982;51.476;7.552;2023-05-08T14:21:29;7.80;;;6.78;;
68940;SDS011;55982;51.476;7.552;2023-05-08T14:23:55;8.80;;;6.88;;
68940;SDS011;55982;51.476;7.552;2023-05-08T14:26:20;8.73;;;7.10;;
68940;SDS011;55982;51.476;7.552;2023-05-08T14:28:46;9.02;;;8.10;;
68940;SDS011;55982;51.476;7.552;2023-05-08T14:31:11;8.63;;;7.13;;
68940;SDS011;55982;51.476;7.552;2023-05-08T14:33:37;7.68;;;6.78;;
68940;SDS011;55982;51.476;7.552;2023-05-08T14:36:02;9.77;;;7.80;;
68940;SDS011;55982;51.476;7.552;2023-05-08T14:38:28;13.00;;;7.55;;
68940;SDS011;55982;51.476;7.552;2023-05-08T14:40:53;9.52;;;7.63;;
68940;SDS011;55982;51.476;7.552;2023-05-08T14:43:19;11.27;;;7.38;;
68940;SDS011;55982;51.476;7.552;2023-05-08T14:45:45;10.43;;;7.57;;
68940;SDS011;55982;51.476;7.552;2023-05-08T14:48:11;10.27;;;7.22;;
68940;SDS011;55982;51.476;7.552;2023-05-08T14:50:37;11.27;;;7.70;;
68940;SDS011;55982;51.476;7.552;2023-05-08T14:53:02;9.52;;;7.45;;
68940;SDS011;55982;51.476;7.552;2023-05-08T14:55:27;9.00;;;8.10;;
68940;SDS011;55982;51.476;7.552;2023-05-08T14:57:53;10.82;;;9.20;;
68940;SDS011;55982;51.476;7.552;2023-05-08T15:00:18;10.98;;;8.57;;
68940;SDS011;55982;51.476;7.552;2023-05-08T15:02:45;10.45;;;8.18;;
68940;SDS011;55982;51.476;7.552;2023-05-08T15:05:11;12.23;;;8.25;;
68940;SDS011;55982;51.476;7.552;2023-05-08T15:07:36;9.73;;;7.75;;
68940;SDS011;55982;51.476;7.552;2023-05-08T15:10:02;9.35;;;7.85;;
68940;SDS011;55982;51.476;7.552;2023-05-08T15:12:28;9.45;;;7.63;;
68940;SDS011;55982;51.476;7.552;2023-05-08T15:14:53;8.95;;;7.72;;
68940;SDS011;55982;51.476;7.552;2023-05-08T15:17:19;8.95;;;7.10;;
68940;SDS011;55982;51.476;7.552;2023-05-08T15:19:45;10.90;;;7.80;;
68940;SDS011;55982;51.476;7.552;2023-05-08T15:22:10;9.70;;;7.82;;
68940;SDS011;55982;51.476;7.552;2023-05-08T15:24:36;7.95;;;6.90;;
68940;SDS011;55982;51.476;7.552;2023-05-08T15:27:02;9.73;;;7.35;;
68940;SDS011;55982;51.476;7.552;2023-05-08T15:29:27;8.00;;;6.70;;